sensor_id;sensor_type;location;lat;lon;timestamp;temperature;humidity
3842;DHT22;1936;47.074;15.336;2024-03-02T00:00:54;7.70;99.90
3842;DHT22;1936;47.074;15.336;2024-03-02T00:02:58;7.70;99.90
3842;DHT22;1936;47.074;15.336;2024-03-02T00:05:02;7.70;99.90
3842;DHT22;1936;47.074;15.336;2024-03-02T00:07:08;7.70;99.90
3842;DHT22;1936;47.074;15.336;2024-03-02T00:09:12;7.70;99.90
3842;DHT22;1936;47.074;15.336;2024-03-02T00:11:16;7.70;99.90
3842;DHT22;1936;47.074;15.336;2024-03-02T00:13:22;7.70;99.90
3842;DHT22;1936;47.074;15.336;2024-03-02T00:15:41;7.70;99.90
3842;DHT22;1936;47.074;15.336;2024-03-02T00:17:46;7.70;99.90
3842;DHT22;1936;47.074;15.336;2024-03-02T00:19:50;7.70;99.90
3842;DHT22;1936;47.074;15.336;2024-03-02T00:21:54;7.70;99.90
3842;DHT22;1936;47.074;15.336;2024-03-02T00:23:58;7.70;99.90
3842;DHT22;1936;47.074;15.336;2024-03-02T00:26:04;7.70;99.90
3842;DHT22;1936;47.074;15.336;2024-03-02T00:28:16;7.70;99.90
3842;DHT22;1936;47.074;15.336;2024-03-02T00:30:44;7.60;99.90
3842;DHT22;1936;47.074;15.336;2024-03-02T00:32:50;7.60;99.90
3842;DHT22;1936;47.074;15.336;2024-03-02T00:34:55;7.70;99.90
3842;DHT22;1936;47.074;15.336;2024-03-02T00:36:58;7.60;99.90
3842;DHT22;1936;47.074;15.336;2024-03-02T00:39:02;7.70;99.90
3842;DHT22;1936;47.074;15.336;2024-03-02T00:41:16;7.70;99.90
3842;DHT22;1936;47.074;15.336;2024-03-02T00:43:45;7.70;99.90
3842;DHT22;1936;47.074;15.336;2024-03-02T00:45:51;7.60;99.90
3842;DHT22;1936;47.074;15.336;2024-03-02T00:47:56;7.60;99.90
3842;DHT22;1936;47.074;15.336;2024-03-02T00:49:59;7.70;99.90
3842;DHT22;1936;47.074;15.336;2024-03-02T00:52:12;7.70;99.90
3842;DHT22;1936;47.074;15.336;2024-03-02T00:54:20;7.60;99.90
3842;DHT22;1936;47.074;15.336;2024-03-02T00:56:24;7.60;99.90
3842;DHT22;1936;47.074;15.336;2024-03-02T00:58:27;7.60;99.90
3842;DHT22;1936;47.074;15.336;2024-03-02T01:00:30;7.60;99.90
3842;DHT22;1936;47.074;15.336;2024-03-02T01:02:35;7.60;99.90
3842;DHT22;1936;47.074;15.336;2024-03-02T01:04:39;7.60;99.90
3842;DHT22;1936;47.074;15.336;2024-03-02T01:06:43;7.60;99.90
3842;DHT22;1936;47.074;15.336;2024-03-02T01:08:47;7.50;99.90
3842;DHT22;1936;47.074;15.336;2024-03-02T01:10:54;7.60;99.90
3842;DHT22;1936;47.074;15.336;2024-03-02T01:12:57;7.60;99.90
3842;DHT22;1936;47.074;15.336;2024-03-02T01:15:04;7.50;99.90
3842;DHT22;1936;47.074;15.336;2024-03-02T01:17:10;7.60;99.90
3842;DHT22;1936;47.074;15.336;2024-03-02T01:19:19;7.60;99.90
3842;DHT22;1936;47.074;15.336;2024-03-02T01:21:23;7.60;99.90
3842;DHT22;1936;47.074;15.336;2024-03-02T01:23:27;7.50;99.90
3842;DHT22;1936;47.074;15.336;2024-03-02T01:25:29;7.60;99.90
3842;DHT22;1936;47.074;15.336;2024-03-02T01:27:33;7.50;99.90
3842;DHT22;1936;47.074;15.336;2024-03-02T01:29:36;7.50;99.90
3842;DHT22;1936;47.074;15.336;2024-03-02T01:31:40;7.50;99.90
3842;DHT22;1936;47.074;15.336;2024-03-02T01:33:44;7.50;99.90
3842;DHT22;1936;47.074;15.336;2024-03-02T01:35:49;7.50;99.90
3842;DHT22;1936;47.074;15.336;2024-03-02T01:37:53;7.50;99.90
3842;DHT22;1936;47.074;15.336;2024-03-02T01:39:55;7.50;99.90
3842;DHT22;1936;47.074;15.336;2024-03-02T01:42:00;7.40;99.90
3842;DHT22;1936;47.074;15.336;2024-03-02T01:44:04;7.50;99.90
3842;DHT22;1936;47.074;15.336;2024-03-02T01:46:07;7.40;99.90
3842;DHT22;1936;47.074;15.336;2024-03-02T01:48:11;7.50;99.90
3842;DHT22;1936;47.074;15.336;2024-03-02T01:50:16;7.50;99.90
3842;DHT22;1936;47.074;15.336;2024-03-02T01:52:28;7.50;99.90
3842;DHT22;1936;47.074;15.336;2024-03-02T01:54:31;7.50;99.90
3842;DHT22;1936;47.074;15.336;2024-03-02T01:56:35;7.40;99.90
3842;DHT22;1936;47.074;15.336;2024-03-02T01:58:38;7.50;99.90
3842;DHT22;1936;47.074;15.336;2024-03-02T02:00:42;7.50;99.90
3842;DHT22;1936;47.074;15.336;2024-03-02T02:02:48;7.40;99.90
3842;DHT22;1936;47.074;15.336;2024-03-02T02:04:52;7.40;99.90
3842;DHT22;1936;47.074;15.336;2024-03-02T02:06:55;7.40;99.90
3842;DHT22;1936;47.074;15.336;2024-03-02T02:09:01;7.30;99.90
3842;DHT22;1936;47.074;15.336;2024-03-02T02:11:05;7.40;99.90
3842;DHT22;1936;47.074;15.336;2024-03-02T02:13:10;7.40;99.90
3842;DHT22;1936;47.074;15.336;2024-03-02T02:15:27;7.40;99.90
3842;DHT22;1936;47.074;15.336;2024-03-02T02:17:31;7.40;99.90
3842;DHT22;1936;47.074;15.336;2024-03-02T02:19:33;7.40;99.90
3842;DHT22;1936;47.074;15.336;2024-03-02T02:21:42;7.40;99.90
3842;DHT22;1936;47.074;15.336;2024-03-02T02:23:46;7.30;99.90
3842;DHT22;1936;47.074;15.336;2024-03-02T02:25:50;7.30;99.90
3842;DHT22;1936;47.074;15.336;2024-03-02T02:27:55;7.30;99.90
3842;DHT22;1936;47.074;15.336;2024-03-02T02:29:58;7.30;99.90
3842;DHT22;1936;47.074;15.336;2024-03-02T02:32:03;7.30;99.90
3842;DHT22;1936;47.074;15.336;2024-03-02T02:34:06;7.30;99.90
3842;DHT22;1936;47.074;15.336;2024-03-02T02:36:11;7.30;99.90
3842;DHT22;1936;47.074;15.336;2024-03-02T02:38:17;7.30;99.90
3842;DHT22;1936;47.074;15.336;2024-03-02T02:40:22;7.30;99.90
3842;DHT22;1936;47.074;15.336;2024-03-02T02:42:26;7.30;99.90
3842;DHT22;1936;47.074;15.336;2024-03-02T02:44:30;7.30;99.90
3842;DHT22;1936;47.074;15.336;2024-03-02T02:46:33;7.30;99.90
3842;DHT22;1936;47.074;15.336;2024-03-02T02:48:37;7.30;99.90
3842;DHT22;1936;47.074;15.336;2024-03-02T02:50:41;7.30;99.90
3842;DHT22;1936;47.074;15.336;2024-03-02T02:52:45;7.20;99.90
3842;DHT22;1936;47.074;15.336;2024-03-02T02:54:50;7.20;99.90
3842;DHT22;1936;47.074;15.336;2024-03-02T02:56:53;7.20;99.90
3842;DHT22;1936;47.074;15.336;2024-03-02T02:58:57;7.20;99.90
3842;DHT22;1936;47.074;15.336;2024-03-02T03:01:00;7.10;99.90
3842;DHT22;1936;47.074;15.336;2024-03-02T03:03:04;7.10;99.90
3842;DHT22;1936;47.074;15.336;2024-03-02T03:05:09;7.10;99.90
3842;DHT22;1936;47.074;15.336;2024-03-02T03:07:12;7.20;99.90
3842;DHT22;1936;47.074;15.336;2024-03-02T03:09:16;7.20;99.90
3842;DHT22;1936;47.074;15.336;2024-03-02T03:11:22;7.20;99.90
3842;DHT22;1936;47.074;15.336;2024-03-02T03:13:28;7.10;99.90
3842;DHT22;1936;47.074;15.336;2024-03-02T03:15:31;7.10;99.90
3842;DHT22;1936;47.074;15.336;2024-03-02T03:17:35;7.10;99.90
3842;DHT22;1936;47.074;15.336;2024-03-02T03:19:39;7.00;99.90
3842;DHT22;1936;47.074;15.336;2024-03-02T03:21:43;7.10;99.90
3842;DHT22;1936;47.074;15.336;2024-03-02T03:23:47;7.00;99.90
3842;DHT22;1936;47.074;15.336;2024-03-02T03:25:50;7.00;99.90
3842;DHT22;1936;47.074;15.336;2024-03-02T03:27:55;7.00;99.90
3842;DHT22;1936;47.074;15.336;2024-03-02T03:29:59;7.00;99.90
3842;DHT22;1936;47.074;15.336;2024-03-02T03:32:03;7.00;99.90
3842;DHT22;1936;47.074;15.336;2024-03-02T03:34:06;7.00;99.90
3842;DHT22;1936;47.074;15.336;2024-03-02T03:36:10;6.90;99.90
3842;DHT22;1936;47.074;15.336;2024-03-02T03:38:13;6.90;99.90
3842;DHT22;1936;47.074;15.336;2024-03-02T03:40:16;6.90;99.90
3842;DHT22;1936;47.074;15.336;2024-03-02T03:42:20;6.90;99.90
3842;DHT22;1936;47.074;15.336;2024-03-02T03:44:25;6.80;99.90
3842;DHT22;1936;47.074;15.336;2024-03-02T03:46:27;6.80;99.90
3842;DHT22;1936;47.074;15.336;2024-03-02T03:48:31;6.80;99.90
3842;DHT22;1936;47.074;15.336;2024-03-02T03:50:35;6.80;99.90
3842;DHT22;1936;47.074;15.336;2024-03-02T03:52:39;6.80;99.90
3842;DHT22;1936;47.074;15.336;2024-03-02T03:54:43;6.80;99.90
3842;DHT22;1936;47.074;15.336;2024-03-02T03:56:47;6.80;99.90
3842;DHT22;1936;47.074;15.336;2024-03-02T03:58:50;6.80;99.90
3842;DHT22;1936;47.074;15.336;2024-03-02T04:00:56;6.80;99.90
3842;DHT22;1936;47.074;15.336;2024-03-02T04:03:00;6.90;99.90
3842;DHT22;1936;47.074;15.336;2024-03-02T04:05:03;6.80;99.90
3842;DHT22;1936;47.074;15.336;2024-03-02T04:07:10;6.90;99.90
3842;DHT22;1936;47.074;15.336;2024-03-02T04:09:14;6.90;99.90
3842;DHT22;1936;47.074;15.336;2024-03-02T04:11:18;6.90;99.90
3842;DHT22;1936;47.074;15.336;2024-03-02T04:13:22;6.90;99.90
3842;DHT22;1936;47.074;15.336;2024-03-02T04:15:25;6.90;99.90
3842;DHT22;1936;47.074;15.336;2024-03-02T04:17:31;6.90;99.90
3842;DHT22;1936;47.074;15.336;2024-03-02T04:19:35;6.90;99.90
3842;DHT22;1936;47.074;15.336;2024-03-02T04:21:39;6.90;99.90
3842;DHT22;1936;47.074;15.336;2024-03-02T04:23:43;6.90;99.90
3842;DHT22;1936;47.074;15.336;2024-03-02T04:25:47;6.90;99.90
3842;DHT22;1936;47.074;15.336;2024-03-02T04:27:50;6.90;99.90
3842;DHT22;1936;47.074;15.336;2024-03-02T04:29:53;7.00;99.90
3842;DHT22;1936;47.074;15.336;2024-03-02T04:31:57;7.00;99.90
3842;DHT22;1936;47.074;15.336;2024-03-02T04:34:02;6.90;99.90
3842;DHT22;1936;47.074;15.336;2024-03-02T04:36:06;6.90;99.90
3842;DHT22;1936;47.074;15.336;2024-03-02T04:38:11;6.80;99.90
3842;DHT22;1936;47.074;15.336;2024-03-02T04:40:14;6.80;99.90
3842;DHT22;1936;47.074;15.336;2024-03-02T04:42:18;6.80;99.90
3842;DHT22;1936;47.074;15.336;2024-03-02T04:44:21;6.90;99.90
3842;DHT22;1936;47.074;15.336;2024-03-02T04:46:25;6.80;99.90
3842;DHT22;1936;47.074;15.336;2024-03-02T04:48:29;6.80;99.90
3842;DHT22;1936;47.074;15.336;2024-03-02T04:50:34;6.80;99.90
3842;DHT22;1936;47.074;15.336;2024-03-02T04:52:39;6.80;99.90
3842;DHT22;1936;47.074;15.336;2024-03-02T04:54:43;6.80;99.90
3842;DHT22;1936;47.074;15.336;2024-03-02T04:57:00;6.80;99.90
3842;DHT22;1936;47.074;15.336;2024-03-02T04:59:05;6.80;99.90
3842;DHT22;1936;47.074;15.336;2024-03-02T05:01:08;6.80;99.90
3842;DHT22;1936;47.074;15.336;2024-03-02T05:03:17;6.80;99.90
3842;DHT22;1936;47.074;15.336;2024-03-02T05:05:21;6.80;99.90
3842;DHT22;1936;47.074;15.336;2024-03-02T05:07:26;6.80;99.90
3842;DHT22;1936;47.074;15.336;2024-03-02T05:09:29;6.80;99.90
3842;DHT22;1936;47.074;15.336;2024-03-02T05:11:33;6.80;99.90
3842;DHT22;1936;47.074;15.336;2024-03-02T05:13:56;6.80;99.90
3842;DHT22;1936;47.074;15.336;2024-03-02T05:16:00;6.80;99.90
3842;DHT22;1936;47.074;15.336;2024-03-02T05:18:04;6.80;99.90
3842;DHT22;1936;47.074;15.336;2024-03-02T05:20:09;6.80;99.90
3842;DHT22;1936;47.074;15.336;2024-03-02T05:22:13;6.90;99.90
3842;DHT22;1936;47.074;15.336;2024-03-02T05:24:19;6.90;99.90
3842;DHT22;1936;47.074;15.336;2024-03-02T05:26:23;6.80;99.90
3842;DHT22;1936;47.074;15.336;2024-03-02T05:28:26;6.80;99.90
3842;DHT22;1936;47.074;15.336;2024-03-02T05:30:30;6.80;99.90
3842;DHT22;1936;47.074;15.336;2024-03-02T05:32:35;6.80;99.90
3842;DHT22;1936;47.074;15.336;2024-03-02T05:34:42;6.80;99.90
3842;DHT22;1936;47.074;15.336;2024-03-02T05:36:48;6.70;99.90
3842;DHT22;1936;47.074;15.336;2024-03-02T05:38:53;6.80;99.90
3842;DHT22;1936;47.074;15.336;2024-03-02T05:41:00;6.80;99.90
3842;DHT22;1936;47.074;15.336;2024-03-02T05:43:05;6.80;99.90
3842;DHT22;1936;47.074;15.336;2024-03-02T05:45:09;6.80;99.90
3842;DHT22;1936;47.074;15.336;2024-03-02T05:47:12;6.70;99.90
3842;DHT22;1936;47.074;15.336;2024-03-02T05:49:16;6.70;99.90
3842;DHT22;1936;47.074;15.336;2024-03-02T05:51:20;6.60;99.90
3842;DHT22;1936;47.074;15.336;2024-03-02T05:53:23;6.60;99.90
3842;DHT22;1936;47.074;15.336;2024-03-02T05:55:27;6.50;99.90
3842;DHT22;1936;47.074;15.336;2024-03-02T05:57:32;6.60;99.90
3842;DHT22;1936;47.074;15.336;2024-03-02T05:59:49;6.50;99.90
3842;DHT22;1936;47.074;15.336;2024-03-02T06:01:53;6.60;99.90
3842;DHT22;1936;47.074;15.336;2024-03-02T06:03:57;6.60;99.90
3842;DHT22;1936;47.074;15.336;2024-03-02T06:06:01;6.70;99.90
3842;DHT22;1936;47.074;15.336;2024-03-02T06:08:04;6.80;99.90
3842;DHT22;1936;47.074;15.336;2024-03-02T06:10:08;6.80;99.90
3842;DHT22;1936;47.074;15.336;2024-03-02T06:12:15;6.80;99.90
3842;DHT22;1936;47.074;15.336;2024-03-02T06:14:20;6.80;99.90
3842;DHT22;1936;47.074;15.336;2024-03-02T06:16:24;6.80;99.90
3842;DHT22;1936;47.074;15.336;2024-03-02T06:18:26;6.80;99.90
3842;DHT22;1936;47.074;15.336;2024-03-02T06:20:30;6.80;99.90
3842;DHT22;1936;47.074;15.336;2024-03-02T06:22:38;6.90;99.90
3842;DHT22;1936;47.074;15.336;2024-03-02T06:24:41;6.90;99.90
3842;DHT22;1936;47.074;15.336;2024-03-02T06:26:45;7.00;99.90
3842;DHT22;1936;47.074;15.336;2024-03-02T06:28:48;7.00;99.90
3842;DHT22;1936;47.074;15.336;2024-03-02T06:30:54;7.00;99.90
3842;DHT22;1936;47.074;15.336;2024-03-02T06:32:59;7.00;99.90
3842;DHT22;1936;47.074;15.336;2024-03-02T06:35:03;7.10;99.90
3842;DHT22;1936;47.074;15.336;2024-03-02T06:37:07;7.10;99.90
3842;DHT22;1936;47.074;15.336;2024-03-02T06:39:10;7.00;99.90
3842;DHT22;1936;47.074;15.336;2024-03-02T06:41:14;7.00;99.90
3842;DHT22;1936;47.074;15.336;2024-03-02T06:43:18;7.00;99.90
3842;DHT22;1936;47.074;15.336;2024-03-02T06:45:20;7.10;99.90
3842;DHT22;1936;47.074;15.336;2024-03-02T06:47:25;7.20;99.90
3842;DHT22;1936;47.074;15.336;2024-03-02T06:49:28;7.20;99.90
3842;DHT22;1936;47.074;15.336;2024-03-02T06:51:33;7.30;99.90
3842;DHT22;1936;47.074;15.336;2024-03-02T06:53:37;7.30;99.90
3842;DHT22;1936;47.074;15.336;2024-03-02T06:55:41;7.40;99.90
3842;DHT22;1936;47.074;15.336;2024-03-02T06:57:46;7.50;99.90
3842;DHT22;1936;47.074;15.336;2024-03-02T06:59:50;7.60;99.90
3842;DHT22;1936;47.074;15.336;2024-03-02T07:01:56;7.70;99.90
3842;DHT22;1936;47.074;15.336;2024-03-02T07:04:01;7.80;99.90
3842;DHT22;1936;47.074;15.336;2024-03-02T07:06:05;7.80;99.90
3842;DHT22;1936;47.074;15.336;2024-03-02T07:08:08;7.90;99.90
3842;DHT22;1936;47.074;15.336;2024-03-02T07:10:12;7.90;99.90
3842;DHT22;1936;47.074;15.336;2024-03-02T07:12:15;8.10;99.90
3842;DHT22;1936;47.074;15.336;2024-03-02T07:14:19;8.20;99.90
3842;DHT22;1936;47.074;15.336;2024-03-02T07:16:22;8.40;99.90
3842;DHT22;1936;47.074;15.336;2024-03-02T07:18:30;8.80;99.90
3842;DHT22;1936;47.074;15.336;2024-03-02T07:20:35;9.40;99.90
3842;DHT22;1936;47.074;15.336;2024-03-02T07:22:41;9.80;99.90
3842;DHT22;1936;47.074;15.336;2024-03-02T07:24:46;10.00;99.90
3842;DHT22;1936;47.074;15.336;2024-03-02T07:26:50;9.90;99.90
3842;DHT22;1936;47.074;15.336;2024-03-02T07:28:56;9.90;99.90
3842;DHT22;1936;47.074;15.336;2024-03-02T07:30:59;10.00;99.90
3842;DHT22;1936;47.074;15.336;2024-03-02T07:33:04;10.00;99.90
3842;DHT22;1936;47.074;15.336;2024-03-02T07:35:08;9.90;99.90
3842;DHT22;1936;47.074;15.336;2024-03-02T07:37:12;10.30;99.90
3842;DHT22;1936;47.074;15.336;2024-03-02T07:39:15;10.50;99.90
3842;DHT22;1936;47.074;15.336;2024-03-02T07:41:19;11.00;99.90
3842;DHT22;1936;47.074;15.336;2024-03-02T07:43:22;11.90;99.90
3842;DHT22;1936;47.074;15.336;2024-03-02T07:45:26;12.20;99.90
3842;DHT22;1936;47.074;15.336;2024-03-02T07:47:30;12.60;99.90
3842;DHT22;1936;47.074;15.336;2024-03-02T07:53:42;14.30;99.90
3842;DHT22;1936;47.074;15.336;2024-03-02T07:57:52;15.30;94.90
3842;DHT22;1936;47.074;15.336;2024-03-02T07:59:55;14.80;95.80
3842;DHT22;1936;47.074;15.336;2024-03-02T08:02:01;14.70;95.00
3842;DHT22;1936;47.074;15.336;2024-03-02T08:04:04;15.10;94.20
3842;DHT22;1936;47.074;15.336;2024-03-02T08:06:08;15.70;96.70
3842;DHT22;1936;47.074;15.336;2024-03-02T08:08:11;15.80;90.20
3842;DHT22;1936;47.074;15.336;2024-03-02T08:10:16;15.40;91.90
3842;DHT22;1936;47.074;15.336;2024-03-02T08:12:19;15.60;84.50
3842;DHT22;1936;47.074;15.336;2024-03-02T08:16:29;16.20;91.20
3842;DHT22;1936;47.074;15.336;2024-03-02T08:18:33;16.90;86.30
3842;DHT22;1936;47.074;15.336;2024-03-02T08:20:36;18.20;75.80
3842;DHT22;1936;47.074;15.336;2024-03-02T08:22:40;18.50;69.50
3842;DHT22;1936;47.074;15.336;2024-03-02T08:24:43;17.90;68.40
3842;DHT22;1936;47.074;15.336;2024-03-02T08:26:47;18.20;66.60
3842;DHT22;1936;47.074;15.336;2024-03-02T08:28:50;18.20;67.70
3842;DHT22;1936;47.074;15.336;2024-03-02T08:30:55;18.30;71.00
3842;DHT22;1936;47.074;15.336;2024-03-02T08:37:06;19.30;66.40
3842;DHT22;1936;47.074;15.336;2024-03-02T08:39:10;19.60;63.30
3842;DHT22;1936;47.074;15.336;2024-03-02T08:41:18;20.10;60.40
3842;DHT22;1936;47.074;15.336;2024-03-02T08:43:22;20.40;62.30
3842;DHT22;1936;47.074;15.336;2024-03-02T08:45:27;20.90;59.00
3842;DHT22;1936;47.074;15.336;2024-03-02T08:47:30;20.60;56.70
3842;DHT22;1936;47.074;15.336;2024-03-02T08:49:35;20.70;57.60
3842;DHT22;1936;47.074;15.336;2024-03-02T08:51:38;20.90;57.50
3842;DHT22;1936;47.074;15.336;2024-03-02T08:53:42;20.20;55.30
3842;DHT22;1936;47.074;15.336;2024-03-02T08:55:46;19.70;59.00
3842;DHT22;1936;47.074;15.336;2024-03-02T08:57:49;19.70;61.80
3842;DHT22;1936;47.074;15.336;2024-03-02T08:59:54;20.30;64.40
3842;DHT22;1936;47.074;15.336;2024-03-02T09:04:02;22.20;57.30
3842;DHT22;1936;47.074;15.336;2024-03-02T09:08:08;21.10;49.90
3842;DHT22;1936;47.074;15.336;2024-03-02T09:10:11;19.60;55.90
3842;DHT22;1936;47.074;15.336;2024-03-02T09:12:15;19.70;59.10
3842;DHT22;1936;47.074;15.336;2024-03-02T09:14:19;19.00;59.90
3842;DHT22;1936;47.074;15.336;2024-03-02T09:16:24;18.50;75.50
3842;DHT22;1936;47.074;15.336;2024-03-02T09:18:32;17.70;64.90
3842;DHT22;1936;47.074;15.336;2024-03-02T09:22:40;16.90;70.30
3842;DHT22;1936;47.074;15.336;2024-03-02T09:24:43;18.00;71.50
3842;DHT22;1936;47.074;15.336;2024-03-02T09:26:47;19.20;66.80
3842;DHT22;1936;47.074;15.336;2024-03-02T09:28:50;19.50;64.80
3842;DHT22;1936;47.074;15.336;2024-03-02T09:30:54;19.20;61.40
3842;DHT22;1936;47.074;15.336;2024-03-02T09:33:03;19.40;62.20
3842;DHT22;1936;47.074;15.336;2024-03-02T09:35:09;18.30;65.60
3842;DHT22;1936;47.074;15.336;2024-03-02T09:37:14;17.60;68.10
3842;DHT22;1936;47.074;15.336;2024-03-02T09:39:16;16.80;69.70
3842;DHT22;1936;47.074;15.336;2024-03-02T09:41:20;15.90;73.90
3842;DHT22;1936;47.074;15.336;2024-03-02T09:43:23;15.50;76.80
3842;DHT22;1936;47.074;15.336;2024-03-02T09:45:27;16.30;79.60
3842;DHT22;1936;47.074;15.336;2024-03-02T09:47:30;16.90;75.30
3842;DHT22;1936;47.074;15.336;2024-03-02T09:49:38;16.70;77.90
3842;DHT22;1936;47.074;15.336;2024-03-02T09:51:46;18.10;73.80
3842;DHT22;1936;47.074;15.336;2024-03-02T09:53:50;19.00;69.50
3842;DHT22;1936;47.074;15.336;2024-03-02T09:55:55;20.60;68.10
3842;DHT22;1936;47.074;15.336;2024-03-02T09:57:58;19.00;62.60
3842;DHT22;1936;47.074;15.336;2024-03-02T10:00:02;17.50;69.40
3842;DHT22;1936;47.074;15.336;2024-03-02T10:02:06;17.50;69.40
3842;DHT22;1936;47.074;15.336;2024-03-02T10:04:09;16.90;71.00
3842;DHT22;1936;47.074;15.336;2024-03-02T10:06:22;15.70;77.30
3842;DHT22;1936;47.074;15.336;2024-03-02T10:08:26;15.70;80.60
3842;DHT22;1936;47.074;15.336;2024-03-02T10:10:36;15.10;80.10
3842;DHT22;1936;47.074;15.336;2024-03-02T10:12:42;15.20;83.00
3842;DHT22;1936;47.074;15.336;2024-03-02T10:14:46;15.20;84.80
3842;DHT22;1936;47.074;15.336;2024-03-02T10:16:50;15.40;81.50
3842;DHT22;1936;47.074;15.336;2024-03-02T10:18:54;15.00;89.20
3842;DHT22;1936;47.074;15.336;2024-03-02T10:21:13;16.90;83.40
3842;DHT22;1936;47.074;15.336;2024-03-02T10:23:18;18.10;72.50
3842;DHT22;1936;47.074;15.336;2024-03-02T10:25:29;17.90;68.10
3842;DHT22;1936;47.074;15.336;2024-03-02T10:27:51;17.60;66.30
3842;DHT22;1936;47.074;15.336;2024-03-02T10:29:55;16.80;69.20
3842;DHT22;1936;47.074;15.336;2024-03-02T10:32:02;16.60;72.40
3842;DHT22;1936;47.074;15.336;2024-03-02T10:34:06;17.10;72.30
3842;DHT22;1936;47.074;15.336;2024-03-02T10:36:09;17.30;68.90
3842;DHT22;1936;47.074;15.336;2024-03-02T10:38:13;18.00;67.50
3842;DHT22;1936;47.074;15.336;2024-03-02T10:40:18;19.80;66.90
3842;DHT22;1936;47.074;15.336;2024-03-02T10:42:24;21.50;60.30
3842;DHT22;1936;47.074;15.336;2024-03-02T10:44:28;21.30;56.10
3842;DHT22;1936;47.074;15.336;2024-03-02T10:48:37;22.60;56.20
3842;DHT22;1936;47.074;15.336;2024-03-02T10:50:43;23.50;49.90
3842;DHT22;1936;47.074;15.336;2024-03-02T10:52:46;22.20;51.30
3842;DHT22;1936;47.074;15.336;2024-03-02T10:54:50;22.20;50.20
3842;DHT22;1936;47.074;15.336;2024-03-02T10:56:58;21.30;50.40
3842;DHT22;1936;47.074;15.336;2024-03-02T10:59:06;20.80;54.50
3842;DHT22;1936;47.074;15.336;2024-03-02T11:01:14;20.60;54.30
3842;DHT22;1936;47.074;15.336;2024-03-02T11:03:20;21.10;52.20
3842;DHT22;1936;47.074;15.336;2024-03-02T11:07:35;23.50;50.40
3842;DHT22;1936;47.074;15.336;2024-03-02T11:09:54;23.70;48.80
3842;DHT22;1936;47.074;15.336;2024-03-02T11:12:04;22.60;49.60
3842;DHT22;1936;47.074;15.336;2024-03-02T11:20:51;23.80;45.40
3842;DHT22;1936;47.074;15.336;2024-03-02T11:24:58;23.30;50.40
3842;DHT22;1936;47.074;15.336;2024-03-02T11:27:04;23.20;47.90
3842;DHT22;1936;47.074;15.336;2024-03-02T11:29:44;22.60;48.20
3842;DHT22;1936;47.074;15.336;2024-03-02T11:31:58;22.00;57.70
3842;DHT22;1936;47.074;15.336;2024-03-02T11:36:20;22.50;50.60
3842;DHT22;1936;47.074;15.336;2024-03-02T11:38:31;22.20;50.80
3842;DHT22;1936;47.074;15.336;2024-03-02T11:40:35;22.00;48.70
3842;DHT22;1936;47.074;15.336;2024-03-02T11:48:56;24.40;45.30
3842;DHT22;1936;47.074;15.336;2024-03-02T11:51:00;23.30;45.00
3842;DHT22;1936;47.074;15.336;2024-03-02T11:53:04;21.40;50.00
3842;DHT22;1936;47.074;15.336;2024-03-02T11:55:10;21.20;50.80
3842;DHT22;1936;47.074;15.336;2024-03-02T11:57:16;21.10;51.70
3842;DHT22;1936;47.074;15.336;2024-03-02T11:59:21;22.00;51.50
3842;DHT22;1936;47.074;15.336;2024-03-02T12:01:25;22.80;49.30
3842;DHT22;1936;47.074;15.336;2024-03-02T12:03:28;22.40;49.10
3842;DHT22;1936;47.074;15.336;2024-03-02T12:05:32;22.00;49.90
3842;DHT22;1936;47.074;15.336;2024-03-02T12:07:37;21.40;50.30
3842;DHT22;1936;47.074;15.336;2024-03-02T12:09:40;21.20;53.90
3842;DHT22;1936;47.074;15.336;2024-03-02T12:11:43;21.60;51.10
3842;DHT22;1936;47.074;15.336;2024-03-02T12:13:53;22.40;51.20
3842;DHT22;1936;47.074;15.336;2024-03-02T12:15:59;23.20;48.30
3842;DHT22;1936;47.074;15.336;2024-03-02T12:18:03;21.70;48.80
3842;DHT22;1936;47.074;15.336;2024-03-02T12:20:07;21.00;54.60
3842;DHT22;1936;47.074;15.336;2024-03-02T12:22:15;21.30;51.50
3842;DHT22;1936;47.074;15.336;2024-03-02T12:24:19;21.80;52.00
3842;DHT22;1936;47.074;15.336;2024-03-02T12:26:22;22.40;49.90
3842;DHT22;1936;47.074;15.336;2024-03-02T12:28:26;20.90;52.60
3842;DHT22;1936;47.074;15.336;2024-03-02T12:30:30;19.40;55.90
3842;DHT22;1936;47.074;15.336;2024-03-02T12:32:35;19.30;56.30
3842;DHT22;1936;47.074;15.336;2024-03-02T12:36:43;18.80;58.00
3842;DHT22;1936;47.074;15.336;2024-03-02T12:38:45;18.40;62.70
3842;DHT22;1936;47.074;15.336;2024-03-02T12:40:48;18.50;73.10
3842;DHT22;1936;47.074;15.336;2024-03-02T12:42:52;19.60;59.70
3842;DHT22;1936;47.074;15.336;2024-03-02T12:44:55;20.90;55.90
3842;DHT22;1936;47.074;15.336;2024-03-02T12:49:10;21.80;50.70
3842;DHT22;1936;47.074;15.336;2024-03-02T12:51:14;21.30;49.80
3842;DHT22;1936;47.074;15.336;2024-03-02T12:53:18;21.90;51.80
3842;DHT22;1936;47.074;15.336;2024-03-02T12:55:22;20.90;51.70
3842;DHT22;1936;47.074;15.336;2024-03-02T12:57:26;19.60;53.70
3842;DHT22;1936;47.074;15.336;2024-03-02T12:59:30;18.50;56.80
3842;DHT22;1936;47.074;15.336;2024-03-02T13:01:33;18.00;58.00
3842;DHT22;1936;47.074;15.336;2024-03-02T13:03:37;17.30;59.80
3842;DHT22;1936;47.074;15.336;2024-03-02T13:05:42;17.10;63.30
3842;DHT22;1936;47.074;15.336;2024-03-02T13:07:51;16.90;62.40
3842;DHT22;1936;47.074;15.336;2024-03-02T13:09:55;16.50;63.40
3842;DHT22;1936;47.074;15.336;2024-03-02T13:11:59;16.40;66.20
3842;DHT22;1936;47.074;15.336;2024-03-02T13:14:03;16.40;67.60
3842;DHT22;1936;47.074;15.336;2024-03-02T13:16:08;16.30;66.40
3842;DHT22;1936;47.074;15.336;2024-03-02T13:18:11;16.30;67.30
3842;DHT22;1936;47.074;15.336;2024-03-02T13:20:15;16.10;65.90
3842;DHT22;1936;47.074;15.336;2024-03-02T13:22:22;15.90;67.80
3842;DHT22;1936;47.074;15.336;2024-03-02T13:24:25;16.20;68.20
3842;DHT22;1936;47.074;15.336;2024-03-02T13:26:30;16.30;68.40
3842;DHT22;1936;47.074;15.336;2024-03-02T13:28:33;16.30;69.30
3842;DHT22;1936;47.074;15.336;2024-03-02T13:30:37;16.00;69.30
3842;DHT22;1936;47.074;15.336;2024-03-02T13:32:40;15.40;71.90
3842;DHT22;1936;47.074;15.336;2024-03-02T13:34:44;15.30;72.80
3842;DHT22;1936;47.074;15.336;2024-03-02T13:36:47;15.20;71.70
3842;DHT22;1936;47.074;15.336;2024-03-02T13:38:52;15.00;73.70
3842;DHT22;1936;47.074;15.336;2024-03-02T13:40:55;14.90;76.40
3842;DHT22;1936;47.074;15.336;2024-03-02T13:42:58;14.90;79.00
3842;DHT22;1936;47.074;15.336;2024-03-02T13:45:01;14.90;80.10
3842;DHT22;1936;47.074;15.336;2024-03-02T13:47:06;14.80;81.30
3842;DHT22;1936;47.074;15.336;2024-03-02T13:49:09;14.60;86.10
3842;DHT22;1936;47.074;15.336;2024-03-02T13:51:12;14.60;85.10
3842;DHT22;1936;47.074;15.336;2024-03-02T13:53:15;14.60;88.10
3842;DHT22;1936;47.074;15.336;2024-03-02T13:55:20;14.40;91.60
3842;DHT22;1936;47.074;15.336;2024-03-02T13:57:22;14.10;91.20
3842;DHT22;1936;47.074;15.336;2024-03-02T13:59:28;14.00;94.10
3842;DHT22;1936;47.074;15.336;2024-03-02T14:01:30;13.90;94.40
3842;DHT22;1936;47.074;15.336;2024-03-02T14:03:35;13.90;96.20
3842;DHT22;1936;47.074;15.336;2024-03-02T14:05:37;13.60;99.90
3842;DHT22;1936;47.074;15.336;2024-03-02T14:07:41;13.50;99.90
3842;DHT22;1936;47.074;15.336;2024-03-02T14:09:44;13.50;99.90
3842;DHT22;1936;47.074;15.336;2024-03-02T14:11:51;13.50;99.90
3842;DHT22;1936;47.074;15.336;2024-03-02T14:13:54;13.50;99.90